sensor_id;sensor_type;location;lat;lon;timestamp;P1;durP1;ratioP1;P2;durP2;ratioP2
43435;SDS011;36399;51.444;-2.018;2023-06-22T00:01:58;1.17;;;1.07;;
43435;SDS011;36399;51.444;-2.018;2023-06-22T00:04:25;1.83;;;1.10;;
43435;SDS011;36399;51.444;-2.018;2023-06-22T00:06:51;2.37;;;1.73;;
43435;SDS011;36399;51.444;-2.018;2023-06-22T00:09:17;4.53;;;2.13;;
43435;SDS011;36399;51.444;-2.018;2023-06-22T00:11:43;2.27;;;1.63;;
43435;SDS011;36399;51.444;-2.018;2023-06-22T00:14:09;1.70;;;1.50;;
43435;SDS011;36399;51.444;-2.018;2023-06-22T00:16:35;1.53;;;1.33;;
43435;SDS011;36399;51.444;-2.018;2023-06-22T00:19:01;2.33;;;2.03;;
43435;SDS011;36399;51.444;-2.018;2023-06-22T00:21:28;1.33;;;1.10;;
43435;SDS011;36399;51.444;-2.018;2023-06-22T00:23:54;2.07;;;1.73;;
43435;SDS011;36399;51.444;-2.018;2023-06-22T00:26:20;2.33;;;2.13;;
43435;SDS011;36399;51.444;-2.018;2023-06-22T00:28:46;1.63;;;1.10;;
43435;SDS011;36399;51.444;-2.018;2023-06-22T00:31:13;1.30;;;1.13;;
43435;SDS011;36399;51.444;-2.018;2023-06-22T00:33:39;5.70;;;3.40;;
43435;SDS011;36399;51.444;-2.018;2023-06-22T00:36:05;2.43;;;2.10;;
43435;SDS011;36399;51.444;-2.018;2023-06-22T00:38:33;10.43;;;2.87;;
43435;SDS011;36399;51.444;-2.018;2023-06-22T00:41:00;3.17;;;2.43;;
43435;SDS011;36399;51.444;-2.018;2023-06-22T00:43:25;4.47;;;1.67;;
43435;SDS011;36399;51.444;-2.018;2023-06-22T00:45:51;1.00;;;1.00;;
43435;SDS011;36399;51.444;-2.018;2023-06-22T00:48:18;1.93;;;1.50;;
43435;SDS011;36399;51.444;-2.018;2023-06-22T00:50:44;2.77;;;2.27;;
43435;SDS011;36399;51.444;-2.018;2023-06-22T00:53:10;1.10;;;1.03;;
43435;SDS011;36399;51.444;-2.018;2023-06-22T00:55:37;3.83;;;2.43;;
43435;SDS011;36399;51.444;-2.018;2023-06-22T00:58:09;2.67;;;2.47;;
43435;SDS011;36399;51.444;-2.018;2023-06-22T01:00:36;5.10;;;1.60;;
43435;SDS011;36399;51.444;-2.018;2023-06-22T01:03:03;5.83;;;3.27;;
43435;SDS011;36399;51.444;-2.018;2023-06-22T01:05:29;3.63;;;2.77;;
43435;SDS011;36399;51.444;-2.018;2023-06-22T01:10:51;3.07;;;1.67;;
43435;SDS011;36399;51.444;-2.018;2023-06-22T01:13:32;2.10;;;1.73;;
43435;SDS011;36399;51.444;-2.018;2023-06-22T01:16:05;5.63;;;2.17;;
43435;SDS011;36399;51.444;-2.018;2023-06-22T01:18:39;2.23;;;1.07;;
43435;SDS011;36399;51.444;-2.018;2023-06-22T01:21:10;5.10;;;1.67;;
43435;SDS011;36399;51.444;-2.018;2023-06-22T01:26:11;1.83;;;1.67;;
43435;SDS011;36399;51.444;-2.018;2023-06-22T01:28:54;3.73;;;1.33;;
43435;SDS011;36399;51.444;-2.018;2023-06-22T01:31:23;1.43;;;1.33;;
43435;SDS011;36399;51.444;-2.018;2023-06-22T01:33:51;6.40;;;3.03;;
43435;SDS011;36399;51.444;-2.018;2023-06-22T01:36:20;2.03;;;1.80;;
43435;SDS011;36399;51.444;-2.018;2023-06-22T01:38:48;2.00;;;1.80;;
43435;SDS011;36399;51.444;-2.018;2023-06-22T01:41:14;7.57;;;3.27;;
43435;SDS011;36399;51.444;-2.018;2023-06-22T01:43:42;7.40;;;3.20;;
43435;SDS011;36399;51.444;-2.018;2023-06-22T01:46:09;1.97;;;1.13;;
43435;SDS011;36399;51.444;-2.018;2023-06-22T01:48:36;1.10;;;1.00;;
43435;SDS011;36399;51.444;-2.018;2023-06-22T01:51:02;4.63;;;3.40;;
43435;SDS011;36399;51.444;-2.018;2023-06-22T01:53:28;3.40;;;1.90;;
43435;SDS011;36399;51.444;-2.018;2023-06-22T01:55:55;5.50;;;2.63;;
43435;SDS011;36399;51.444;-2.018;2023-06-22T01:58:22;8.37;;;3.00;;
43435;SDS011;36399;51.444;-2.018;2023-06-22T02:00:59;3.67;;;2.00;;
43435;SDS011;36399;51.444;-2.018;2023-06-22T02:03:35;2.08;;;1.88;;
43435;SDS011;36399;51.444;-2.018;2023-06-22T02:06:06;3.37;;;2.87;;
43435;SDS011;36399;51.444;-2.018;2023-06-22T02:08:37;3.27;;;2.93;;
43435;SDS011;36399;51.444;-2.018;2023-06-22T02:11:08;2.10;;;1.57;;
43435;SDS011;36399;51.444;-2.018;2023-06-22T02:13:36;6.50;;;1.77;;
43435;SDS011;36399;51.444;-2.018;2023-06-22T02:16:03;2.67;;;1.70;;
43435;SDS011;36399;51.444;-2.018;2023-06-22T02:18:29;1.23;;;0.93;;
43435;SDS011;36399;51.444;-2.018;2023-06-22T02:20:55;11.33;;;2.83;;
43435;SDS011;36399;51.444;-2.018;2023-06-22T02:23:21;5.83;;;2.47;;
43435;SDS011;36399;51.444;-2.018;2023-06-22T02:25:47;4.13;;;1.00;;
43435;SDS011;36399;51.444;-2.018;2023-06-22T02:28:13;2.83;;;2.30;;
43435;SDS011;36399;51.444;-2.018;2023-06-22T02:30:39;2.50;;;2.07;;
43435;SDS011;36399;51.444;-2.018;2023-06-22T02:33:05;4.87;;;2.43;;
43435;SDS011;36399;51.444;-2.018;2023-06-22T02:35:31;3.83;;;2.57;;
43435;SDS011;36399;51.444;-2.018;2023-06-22T02:37:58;3.37;;;3.07;;
43435;SDS011;36399;51.444;-2.018;2023-06-22T02:40:26;2.37;;;2.17;;
43435;SDS011;36399;51.444;-2.018;2023-06-22T02:42:53;4.17;;;2.57;;
43435;SDS011;36399;51.444;-2.018;2023-06-22T02:45:19;4.83;;;3.07;;
43435;SDS011;36399;51.444;-2.018;2023-06-22T02:47:45;2.97;;;2.73;;
43435;SDS011;36399;51.444;-2.018;2023-06-22T02:50:11;6.63;;;2.30;;
43435;SDS011;36399;51.444;-2.018;2023-06-22T02:52:37;3.30;;;2.20;;
43435;SDS011;36399;51.444;-2.018;2023-06-22T02:55:05;5.07;;;3.77;;
43435;SDS011;36399;51.444;-2.018;2023-06-22T02:57:32;5.50;;;3.07;;
43435;SDS011;36399;51.444;-2.018;2023-06-22T02:59:59;7.30;;;4.63;;
43435;SDS011;36399;51.444;-2.018;2023-06-22T03:02:25;2.63;;;2.40;;
43435;SDS011;36399;51.444;-2.018;2023-06-22T03:04:52;10.23;;;4.80;;
43435;SDS011;36399;51.444;-2.018;2023-06-22T03:07:19;3.37;;;2.50;;
43435;SDS011;36399;51.444;-2.018;2023-06-22T03:09:46;8.10;;;4.57;;
43435;SDS011;36399;51.444;-2.018;2023-06-22T03:12:11;3.83;;;1.90;;
43435;SDS011;36399;51.444;-2.018;2023-06-22T03:14:37;19.50;;;3.17;;
43435;SDS011;36399;51.444;-2.018;2023-06-22T03:17:04;1.90;;;1.70;;
43435;SDS011;36399;51.444;-2.018;2023-06-22T03:19:30;5.30;;;2.73;;
43435;SDS011;36399;51.444;-2.018;2023-06-22T03:21:59;7.50;;;4.10;;
43435;SDS011;36399;51.444;-2.018;2023-06-22T03:24:26;2.20;;;1.53;;
43435;SDS011;36399;51.444;-2.018;2023-06-22T03:26:54;2.37;;;2.17;;
43435;SDS011;36399;51.444;-2.018;2023-06-22T03:29:20;3.10;;;2.27;;
43435;SDS011;36399;51.444;-2.018;2023-06-22T03:31:46;4.47;;;1.93;;
43435;SDS011;36399;51.444;-2.018;2023-06-22T03:34:12;3.40;;;3.20;;
43435;SDS011;36399;51.444;-2.018;2023-06-22T03:36:38;5.97;;;3.27;;
43435;SDS011;36399;51.444;-2.018;2023-06-22T03:39:04;4.43;;;3.17;;
43435;SDS011;36399;51.444;-2.018;2023-06-22T03:41:30;2.93;;;2.63;;
43435;SDS011;36399;51.444;-2.018;2023-06-22T03:43:56;2.00;;;1.87;;
43435;SDS011;36399;51.444;-2.018;2023-06-22T03:46:21;4.07;;;3.67;;
43435;SDS011;36399;51.444;-2.018;2023-06-22T03:48:47;2.53;;;1.63;;
43435;SDS011;36399;51.444;-2.018;2023-06-22T03:51:13;3.00;;;2.70;;
43435;SDS011;36399;51.444;-2.018;2023-06-22T03:53:39;1.63;;;1.53;;
43435;SDS011;36399;51.444;-2.018;2023-06-22T03:56:05;2.70;;;2.50;;
43435;SDS011;36399;51.444;-2.018;2023-06-22T03:58:31;3.60;;;1.67;;
43435;SDS011;36399;51.444;-2.018;2023-06-22T04:00:58;2.63;;;2.43;;
43435;SDS011;36399;51.444;-2.018;2023-06-22T04:03:25;2.57;;;2.37;;
43435;SDS011;36399;51.444;-2.018;2023-06-22T04:05:51;3.50;;;3.23;;
43435;SDS011;36399;51.444;-2.018;2023-06-22T04:08:17;2.13;;;1.67;;
43435;SDS011;36399;51.444;-2.018;2023-06-22T04:10:43;1.70;;;1.60;;
43435;SDS011;36399;51.444;-2.018;2023-06-22T04:13:10;3.80;;;2.67;;
43435;SDS011;36399;51.444;-2.018;2023-06-22T04:15:36;10.53;;;5.63;;
43435;SDS011;36399;51.444;-2.018;2023-06-22T04:18:02;8.77;;;3.43;;
43435;SDS011;36399;51.444;-2.018;2023-06-22T04:20:28;3.17;;;2.20;;
43435;SDS011;36399;51.444;-2.018;2023-06-22T04:22:54;2.70;;;1.73;;
43435;SDS011;36399;51.444;-2.018;2023-06-22T04:25:20;5.83;;;2.77;;
43435;SDS011;36399;51.444;-2.018;2023-06-22T04:27:47;3.33;;;3.03;;
43435;SDS011;36399;51.444;-2.018;2023-06-22T04:30:13;5.97;;;2.83;;
43435;SDS011;36399;51.444;-2.018;2023-06-22T04:32:42;4.77;;;2.00;;
43435;SDS011;36399;51.444;-2.018;2023-06-22T04:35:09;3.70;;;2.20;;
43435;SDS011;36399;51.444;-2.018;2023-06-22T04:37:35;3.27;;;2.77;;
43435;SDS011;36399;51.444;-2.018;2023-06-22T04:40:01;2.77;;;2.03;;
43435;SDS011;36399;51.444;-2.018;2023-06-22T04:42:30;1.50;;;1.40;;
43435;SDS011;36399;51.444;-2.018;2023-06-22T04:44:57;5.60;;;3.10;;
43435;SDS011;36399;51.444;-2.018;2023-06-22T04:47:26;3.57;;;3.00;;
43435;SDS011;36399;51.444;-2.018;2023-06-22T04:49:52;6.80;;;3.03;;
43435;SDS011;36399;51.444;-2.018;2023-06-22T04:52:18;2.57;;;2.37;;
43435;SDS011;36399;51.444;-2.018;2023-06-22T04:54:45;2.13;;;2.00;;
43435;SDS011;36399;51.444;-2.018;2023-06-22T04:57:16;2.70;;;2.37;;
43435;SDS011;36399;51.444;-2.018;2023-06-22T04:59:42;1.93;;;1.73;;
43435;SDS011;36399;51.444;-2.018;2023-06-22T05:02:08;0.37;;;0.37;;
43435;SDS011;36399;51.444;-2.018;2023-06-22T05:04:35;4.63;;;3.13;;
43435;SDS011;36399;51.444;-2.018;2023-06-22T05:07:04;3.03;;;2.77;;
43435;SDS011;36399;51.444;-2.018;2023-06-22T05:09:33;2.57;;;2.20;;
43435;SDS011;36399;51.444;-2.018;2023-06-22T05:11:59;2.57;;;2.37;;
43435;SDS011;36399;51.444;-2.018;2023-06-22T05:14:28;4.37;;;3.67;;
43435;SDS011;36399;51.444;-2.018;2023-06-22T05:16:55;2.77;;;2.50;;
43435;SDS011;36399;51.444;-2.018;2023-06-22T05:19:24;3.13;;;2.63;;
43435;SDS011;36399;51.444;-2.018;2023-06-22T05:21:56;3.92;;;3.58;;
43435;SDS011;36399;51.444;-2.018;2023-06-22T05:24:22;3.93;;;2.17;;
43435;SDS011;36399;51.444;-2.018;2023-06-22T05:26:48;2.70;;;2.50;;
43435;SDS011;36399;51.444;-2.018;2023-06-22T05:29:14;1.50;;;1.30;;
43435;SDS011;36399;51.444;-2.018;2023-06-22T05:31:43;7.57;;;3.37;;
43435;SDS011;36399;51.444;-2.018;2023-06-22T05:34:09;6.13;;;1.73;;
43435;SDS011;36399;51.444;-2.018;2023-06-22T05:36:35;4.60;;;3.77;;
43435;SDS011;36399;51.444;-2.018;2023-06-22T05:39:10;1.60;;;1.50;;
43435;SDS011;36399;51.444;-2.018;2023-06-22T05:41:38;2.93;;;1.93;;
43435;SDS011;36399;51.444;-2.018;2023-06-22T05:44:04;2.30;;;1.50;;
43435;SDS011;36399;51.444;-2.018;2023-06-22T05:46:30;3.47;;;2.40;;
43435;SDS011;36399;51.444;-2.018;2023-06-22T05:48:55;7.23;;;3.77;;
43435;SDS011;36399;51.444;-2.018;2023-06-22T05:51:21;2.50;;;2.13;;
43435;SDS011;36399;51.444;-2.018;2023-06-22T05:53:47;6.10;;;2.93;;
43435;SDS011;36399;51.444;-2.018;2023-06-22T05:56:15;2.80;;;2.60;;
43435;SDS011;36399;51.444;-2.018;2023-06-22T05:58:41;2.90;;;1.30;;
43435;SDS011;36399;51.444;-2.018;2023-06-22T06:01:07;2.43;;;2.23;;
43435;SDS011;36399;51.444;-2.018;2023-06-22T06:03:34;2.90;;;2.33;;
43435;SDS011;36399;51.444;-2.018;2023-06-22T06:06:07;2.55;;;2.35;;
43435;SDS011;36399;51.444;-2.018;2023-06-22T06:08:33;3.17;;;2.53;;
43435;SDS011;36399;51.444;-2.018;2023-06-22T06:11:00;5.87;;;3.27;;
43435;SDS011;36399;51.444;-2.018;2023-06-22T06:13:28;2.47;;;2.27;;
43435;SDS011;36399;51.444;-2.018;2023-06-22T06:15:56;5.50;;;2.70;;
43435;SDS011;36399;51.444;-2.018;2023-06-22T06:18:22;1.77;;;1.43;;
43435;SDS011;36399;51.444;-2.018;2023-06-22T06:20:48;7.90;;;2.20;;
43435;SDS011;36399;51.444;-2.018;2023-06-22T06:23:15;2.90;;;2.70;;
43435;SDS011;36399;51.444;-2.018;2023-06-22T06:25:41;4.67;;;2.23;;
43435;SDS011;36399;51.444;-2.018;2023-06-22T06:28:06;2.67;;;2.33;;
43435;SDS011;36399;51.444;-2.018;2023-06-22T06:30:32;3.23;;;2.97;;
43435;SDS011;36399;51.444;-2.018;2023-06-22T06:32:58;2.07;;;1.87;;
43435;SDS011;36399;51.444;-2.018;2023-06-22T06:35:24;3.43;;;2.97;;
43435;SDS011;36399;51.444;-2.018;2023-06-22T06:37:50;1.57;;;1.17;;
43435;SDS011;36399;51.444;-2.018;2023-06-22T06:40:17;4.43;;;2.63;;
43435;SDS011;36399;51.444;-2.018;2023-06-22T06:42:45;4.03;;;2.77;;
43435;SDS011;36399;51.444;-2.018;2023-06-22T06:47:42;2.60;;;1.93;;
43435;SDS011;36399;51.444;-2.018;2023-06-22T06:50:09;4.37;;;3.00;;
43435;SDS011;36399;51.444;-2.018;2023-06-22T06:52:36;2.40;;;2.20;;
43435;SDS011;36399;51.444;-2.018;2023-06-22T06:55:02;6.47;;;2.83;;
43435;SDS011;36399;51.444;-2.018;2023-06-22T06:57:34;1.77;;;1.67;;
43435;SDS011;36399;51.444;-2.018;2023-06-22T07:00:00;3.37;;;2.80;;
43435;SDS011;36399;51.444;-2.018;2023-06-22T07:02:26;10.07;;;1.97;;
43435;SDS011;36399;51.444;-2.018;2023-06-22T07:04:55;6.53;;;2.77;;
43435;SDS011;36399;51.444;-2.018;2023-06-22T07:07:21;3.80;;;1.20;;
43435;SDS011;36399;51.444;-2.018;2023-06-22T07:09:47;1.93;;;1.77;;
43435;SDS011;36399;51.444;-2.018;2023-06-22T07:12:13;2.80;;;2.60;;
43435;SDS011;36399;51.444;-2.018;2023-06-22T07:14:39;1.60;;;1.30;;
43435;SDS011;36399;51.444;-2.018;2023-06-22T07:17:05;3.10;;;1.87;;
43435;SDS011;36399;51.444;-2.018;2023-06-22T07:19:32;4.97;;;2.72;;
43435;SDS011;36399;51.444;-2.018;2023-06-22T07:21:58;2.45;;;1.52;;
43435;SDS011;36399;51.444;-2.018;2023-06-22T07:24:24;1.40;;;1.10;;
43435;SDS011;36399;51.444;-2.018;2023-06-22T07:26:50;2.27;;;1.03;;
43435;SDS011;36399;51.444;-2.018;2023-06-22T07:29:19;5.95;;;3.15;;
43435;SDS011;36399;51.444;-2.018;2023-06-22T07:31:46;2.85;;;2.08;;
43435;SDS011;36399;51.444;-2.018;2023-06-22T07:34:13;2.17;;;1.92;;
43435;SDS011;36399;51.444;-2.018;2023-06-22T07:36:39;3.63;;;2.03;;
43435;SDS011;36399;51.444;-2.018;2023-06-22T07:39:05;1.33;;;1.20;;
43435;SDS011;36399;51.444;-2.018;2023-06-22T07:41:31;4.45;;;2.10;;
43435;SDS011;36399;51.444;-2.018;2023-06-22T07:43:57;2.40;;;1.60;;
43435;SDS011;36399;51.444;-2.018;2023-06-22T07:46:23;1.83;;;1.52;;
43435;SDS011;36399;51.444;-2.018;2023-06-22T07:48:49;9.43;;;1.75;;
43435;SDS011;36399;51.444;-2.018;2023-06-22T07:51:15;2.03;;;1.38;;
43435;SDS011;36399;51.444;-2.018;2023-06-22T07:53:42;2.70;;;1.88;;
43435;SDS011;36399;51.444;-2.018;2023-06-22T07:56:12;3.72;;;2.78;;
43435;SDS011;36399;51.444;-2.018;2023-06-22T07:58:39;3.38;;;2.30;;
43435;SDS011;36399;51.444;-2.018;2023-06-22T08:01:05;3.25;;;2.95;;
43435;SDS011;36399;51.444;-2.018;2023-06-22T08:03:31;3.10;;;1.05;;
43435;SDS011;36399;51.444;-2.018;2023-06-22T08:05:58;1.15;;;1.02;;
43435;SDS011;36399;51.444;-2.018;2023-06-22T08:08:23;5.63;;;2.22;;
43435;SDS011;36399;51.444;-2.018;2023-06-22T08:10:49;2.13;;;1.95;;
43435;SDS011;36399;51.444;-2.018;2023-06-22T08:13:15;1.85;;;1.75;;
43435;SDS011;36399;51.444;-2.018;2023-06-22T08:15:42;7.00;;;2.42;;
43435;SDS011;36399;51.444;-2.018;2023-06-22T08:18:08;1.50;;;1.33;;
43435;SDS011;36399;51.444;-2.018;2023-06-22T08:20:33;2.85;;;1.95;;
43435;SDS011;36399;51.444;-2.018;2023-06-22T08:22:59;1.25;;;1.15;;
43435;SDS011;36399;51.444;-2.018;2023-06-22T08:25:31;1.83;;;1.73;;
43435;SDS011;36399;51.444;-2.018;2023-06-22T08:27:58;4.80;;;1.70;;
43435;SDS011;36399;51.444;-2.018;2023-06-22T08:30:24;1.80;;;1.35;;
43435;SDS011;36399;51.444;-2.018;2023-06-22T08:32:50;1.42;;;1.33;;
43435;SDS011;36399;51.444;-2.018;2023-06-22T08:35:19;2.10;;;1.67;;
43435;SDS011;36399;51.444;-2.018;2023-06-22T08:37:46;1.48;;;1.25;;
43435;SDS011;36399;51.444;-2.018;2023-06-22T08:40:18;1.08;;;0.90;;
43435;SDS011;36399;51.444;-2.018;2023-06-22T08:42:48;2.05;;;1.65;;
43435;SDS011;36399;51.444;-2.018;2023-06-22T08:45:15;1.63;;;1.50;;
43435;SDS011;36399;51.444;-2.018;2023-06-22T08:47:41;2.72;;;2.17;;
43435;SDS011;36399;51.444;-2.018;2023-06-22T08:50:08;2.17;;;0.90;;
43435;SDS011;36399;51.444;-2.018;2023-06-22T08:52:35;3.85;;;2.15;;
43435;SDS011;36399;51.444;-2.018;2023-06-22T08:55:02;1.23;;;1.15;;
43435;SDS011;36399;51.444;-2.018;2023-06-22T08:57:28;0.85;;;0.70;;
43435;SDS011;36399;51.444;-2.018;2023-06-22T08:59:56;6.25;;;1.58;;
43435;SDS011;36399;51.444;-2.018;2023-06-22T09:02:24;1.88;;;1.23;;
43435;SDS011;36399;51.444;-2.018;2023-06-22T09:04:51;4.88;;;1.35;;
43435;SDS011;36399;51.444;-2.018;2023-06-22T09:07:24;2.03;;;1.13;;
43435;SDS011;36399;51.444;-2.018;2023-06-22T09:09:51;0.85;;;0.70;;
43435;SDS011;36399;51.444;-2.018;2023-06-22T09:12:20;2.90;;;1.45;;
43435;SDS011;36399;51.444;-2.018;2023-06-22T09:14:50;1.42;;;1.25;;
43435;SDS011;36399;51.444;-2.018;2023-06-22T09:17:16;2.47;;;1.30;;
43435;SDS011;36399;51.444;-2.018;2023-06-22T09:19:42;1.58;;;1.15;;
43435;SDS011;36399;51.444;-2.018;2023-06-22T09:22:07;1.15;;;1.05;;
43435;SDS011;36399;51.444;-2.018;2023-06-22T09:24:36;1.10;;;1.00;;
43435;SDS011;36399;51.444;-2.018;2023-06-22T09:27:02;1.80;;;1.42;;
43435;SDS011;36399;51.444;-2.018;2023-06-22T09:29:28;2.03;;;0.98;;
43435;SDS011;36399;51.444;-2.018;2023-06-22T09:31:54;0.60;;;0.55;;
43435;SDS011;36399;51.444;-2.018;2023-06-22T09:34:21;1.40;;;0.85;;
43435;SDS011;36399;51.444;-2.018;2023-06-22T09:36:47;2.17;;;1.15;;
43435;SDS011;36399;51.444;-2.018;2023-06-22T09:39:17;2.28;;;1.80;;
43435;SDS011;36399;51.444;-2.018;2023-06-22T09:41:44;1.45;;;0.88;;
43435;SDS011;36399;51.444;-2.018;2023-06-22T09:44:10;0.90;;;0.85;;
43435;SDS011;36399;51.444;-2.018;2023-06-22T09:46:36;2.85;;;0.90;;
43435;SDS011;36399;51.444;-2.018;2023-06-22T09:49:02;0.55;;;0.55;;
43435;SDS011;36399;51.444;-2.018;2023-06-22T09:51:28;0.63;;;0.57;;
43435;SDS011;36399;51.444;-2.018;2023-06-22T09:53:54;0.98;;;0.82;;
43435;SDS011;36399;51.444;-2.018;2023-06-22T09:56:20;1.40;;;0.60;;
43435;SDS011;36399;51.444;-2.018;2023-06-22T09:58:46;1.20;;;0.32;;
43435;SDS011;36399;51.444;-2.018;2023-06-22T10:01:13;0.75;;;0.70;;
43435;SDS011;36399;51.444;-2.018;2023-06-22T10:03:47;0.20;;;0.20;;
43435;SDS011;36399;51.444;-2.018;2023-06-22T10:08:39;0.57;;;0.32;;
43435;SDS011;36399;51.444;-2.018;2023-06-22T10:11:06;1.42;;;0.98;;
43435;SDS011;36399;51.444;-2.018;2023-06-22T10:13:32;0.85;;;0.47;;
43435;SDS011;36399;51.444;-2.018;2023-06-22T10:15:58;2.30;;;0.98;;
43435;SDS011;36399;51.444;-2.018;2023-06-22T10:18:24;0.85;;;0.60;;
43435;SDS011;36399;51.444;-2.018;2023-06-22T10:20:50;5.28;;;0.30;;
43435;SDS011;36399;51.444;-2.018;2023-06-22T10:23:18;0.10;;;0.10;;
43435;SDS011;36399;51.444;-2.018;2023-06-22T10:25:47;0.70;;;0.30;;
43435;SDS011;36399;51.444;-2.018;2023-06-22T10:28:13;0.70;;;0.57;;
43435;SDS011;36399;51.444;-2.018;2023-06-22T10:30:40;0.00;;;0.00;;
43435;SDS011;36399;51.444;-2.018;2023-06-22T10:33:10;0.65;;;0.30;;
43435;SDS011;36399;51.444;-2.018;2023-06-22T10:35:36;0.73;;;0.57;;
43435;SDS011;36399;51.444;-2.018;2023-06-22T10:38:03;0.35;;;0.20;;
43435;SDS011;36399;51.444;-2.018;2023-06-22T10:40:30;0.17;;;0.17;;
43435;SDS011;36399;51.444;-2.018;2023-06-22T10:42:56;0.38;;;0.20;;
43435;SDS011;36399;51.444;-2.018;2023-06-22T10:45:22;1.20;;;0.80;;
43435;SDS011;36399;51.444;-2.018;2023-06-22T10:47:48;2.88;;;0.75;;
43435;SDS011;36399;51.444;-2.018;2023-06-22T10:50:14;1.02;;;0.50;;
43435;SDS011;36399;51.444;-2.018;2023-06-22T10:52:40;1.75;;;0.73;;
43435;SDS011;36399;51.444;-2.018;2023-06-22T10:55:10;1.33;;;0.90;;
43435;SDS011;36399;51.444;-2.018;2023-06-22T10:57:36;0.52;;;0.50;;
43435;SDS011;36399;51.444;-2.018;2023-06-22T11:00:02;0.45;;;0.32;;
43435;SDS011;36399;51.444;-2.018;2023-06-22T11:02:31;0.57;;;0.32;;
43435;SDS011;36399;51.444;-2.018;2023-06-22T11:04:57;1.98;;;0.80;;
43435;SDS011;36399;51.444;-2.018;2023-06-22T11:07:26;0.50;;;0.30;;
43435;SDS011;36399;51.444;-2.018;2023-06-22T11:09:54;1.65;;;0.35;;
43435;SDS011;36399;51.444;-2.018;2023-06-22T11:12:20;1.63;;;0.55;;
43435;SDS011;36399;51.444;-2.018;2023-06-22T11:14:46;0.40;;;0.35;;
43435;SDS011;36399;51.444;-2.018;2023-06-22T11:17:12;0.57;;;0.32;;
43435;SDS011;36399;51.444;-2.018;2023-06-22T11:19:38;1.02;;;0.55;;
43435;SDS011;36399;51.444;-2.018;2023-06-22T11:22:04;0.60;;;0.40;;
43435;SDS011;36399;51.444;-2.018;2023-06-22T11:24:30;2.47;;;0.75;;
43435;SDS011;36399;51.444;-2.018;2023-06-22T11:26:58;0.38;;;0.30;;
43435;SDS011;36399;51.444;-2.018;2023-06-22T11:29:24;0.73;;;0.52;;
43435;SDS011;36399;51.444;-2.018;2023-06-22T11:31:50;1.05;;;0.22;;
43435;SDS011;36399;51.444;-2.018;2023-06-22T11:34:16;3.03;;;1.17;;
43435;SDS011;36399;51.444;-2.018;2023-06-22T11:36:41;0.77;;;0.25;;
43435;SDS011;36399;51.444;-2.018;2023-06-22T11:39:08;1.85;;;0.65;;
43435;SDS011;36399;51.444;-2.018;2023-06-22T11:41:35;2.05;;;0.85;;
43435;SDS011;36399;51.444;-2.018;2023-06-22T11:44:01;0.28;;;0.28;;
43435;SDS011;36399;51.444;-2.018;2023-06-22T11:46:27;1.35;;;0.57;;
43435;SDS011;36399;51.444;-2.018;2023-06-22T11:48:53;0.20;;;0.20;;
43435;SDS011;36399;51.444;-2.018;2023-06-22T11:51:19;1.20;;;0.47;;
43435;SDS011;36399;51.444;-2.018;2023-06-22T11:53:45;1.35;;;0.20;;
43435;SDS011;36399;51.444;-2.018;2023-06-22T11:56:14;2.92;;;0.73;;
43435;SDS011;36399;51.444;-2.018;2023-06-22T11:58:40;3.30;;;1.80;;
43435;SDS011;36399;51.444;-2.018;2023-06-22T12:01:06;1.45;;;0.70;;
43435;SDS011;36399;51.444;-2.018;2023-06-22T12:03:32;1.20;;;0.85;;
43435;SDS011;36399;51.444;-2.018;2023-06-22T12:05:59;0.52;;;0.20;;
43435;SDS011;36399;51.444;-2.018;2023-06-22T12:08:25;0.98;;;0.80;;
43435;SDS011;36399;51.444;-2.018;2023-06-22T12:10:51;0.63;;;0.63;;
43435;SDS011;36399;51.444;-2.018;2023-06-22T12:13:17;0.60;;;0.57;;
43435;SDS011;36399;51.444;-2.018;2023-06-22T12:15:43;0.65;;;0.40;;
43435;SDS011;36399;51.444;-2.018;2023-06-22T12:18:09;0.80;;;0.70;;
43435;SDS011;36399;51.444;-2.018;2023-06-22T12:20:38;0.85;;;0.85;;
43435;SDS011;36399;51.444;-2.018;2023-06-22T12:23:04;6.20;;;1.75;;
43435;SDS011;36399;51.444;-2.018;2023-06-22T12:25:30;0.63;;;0.25;;
43435;SDS011;36399;51.444;-2.018;2023-06-22T12:27:56;0.20;;;0.13;;
43435;SDS011;36399;51.444;-2.018;2023-06-22T12:30:22;0.40;;;0.30;;
43435;SDS011;36399;51.444;-2.018;2023-06-22T12:32:49;3.05;;;0.43;;
43435;SDS011;36399;51.444;-2.018;2023-06-22T12:35:16;1.08;;;0.40;;
43435;SDS011;36399;51.444;-2.018;2023-06-22T12:37:42;1.67;;;0.75;;
43435;SDS011;36399;51.444;-2.018;2023-06-22T12:40:08;0.28;;;0.28;;
43435;SDS011;36399;51.444;-2.018;2023-06-22T12:42:35;0.90;;;0.30;;
43435;SDS011;36399;51.444;-2.018;2023-06-22T12:45:01;0.65;;;0.32;;
43435;SDS011;36399;51.444;-2.018;2023-06-22T12:47:27;0.57;;;0.40;;
43435;SDS011;36399;51.444;-2.018;2023-06-22T12:49:53;0.28;;;0.28;;
43435;SDS011;36399;51.444;-2.018;2023-06-22T12:52:19;1.33;;;0.70;;
43435;SDS011;36399;51.444;-2.018;2023-06-22T12:54:45;1.33;;;0.63;;
43435;SDS011;36399;51.444;-2.018;2023-06-22T12:57:11;2.35;;;1.02;;
43435;SDS011;36399;51.444;-2.018;2023-06-22T12:59:37;0.45;;;0.20;;
43435;SDS011;36399;51.444;-2.018;2023-06-22T13:02:03;0.50;;;0.50;;
43435;SDS011;36399;51.444;-2.018;2023-06-22T13:04:29;2.38;;;1.45;;
43435;SDS011;36399;51.444;-2.018;2023-06-22T13:06:55;3.05;;;0.80;;
43435;SDS011;36399;51.444;-2.018;2023-06-22T13:09:21;0.95;;;0.70;;
43435;SDS011;36399;51.444;-2.018;2023-06-22T13:11:47;0.47;;;0.25;;
43435;SDS011;36399;51.444;-2.018;2023-06-22T13:14:14;0.50;;;0.40;;
43435;SDS011;36399;51.444;-2.018;2023-06-22T13:16:41;1.60;;;0.82;;
43435;SDS011;36399;51.444;-2.018;2023-06-22T13:19:08;0.52;;;0.45;;
43435;SDS011;36399;51.444;-2.018;2023-06-22T13:21:33;0.60;;;0.60;;
43435;SDS011;36399;51.444;-2.018;2023-06-22T13:23:59;0.25;;;0.20;;
43435;SDS011;36399;51.444;-2.018;2023-06-22T13:26:26;9.07;;;1.90;;
43435;SDS011;36399;51.444;-2.018;2023-06-22T13:28:54;0.75;;;0.35;;
43435;SDS011;36399;51.444;-2.018;2023-06-22T13:31:23;0.65;;;0.47;;
43435;SDS011;36399;51.444;-2.018;2023-06-22T13:33:49;0.30;;;0.20;;
43435;SDS011;36399;51.444;-2.018;2023-06-22T13:36:18;0.40;;;0.40;;
43435;SDS011;36399;51.444;-2.018;2023-06-22T13:38:44;0.95;;;0.30;;
43435;SDS011;36399;51.444;-2.018;2023-06-22T13:41:10;0.65;;;0.60;;
43435;SDS011;36399;51.444;-2.018;2023-06-22T13:43:36;0.22;;;0.10;;
43435;SDS011;36399;51.444;-2.018;2023-06-22T13:46:02;0.43;;;0.43;;
43435;SDS011;36399;51.444;-2.018;2023-06-22T13:48:28;1.00;;;0.32;;
43435;SDS011;36399;51.444;-2.018;2023-06-22T13:50:54;0.43;;;0.15;;
43435;SDS011;36399;51.444;-2.018;2023-06-22T13:53:20;0.00;;;0.00;;
43435;SDS011;36399;51.444;-2.018;2023-06-22T13:55:46;0.38;;;0.30;;
43435;SDS011;36399;51.444;-2.018;2023-06-22T13:58:13;2.13;;;1.48;;
43435;SDS011;36399;51.444;-2.018;2023-06-22T14:00:39;0.98;;;0.68;;
43435;SDS011;36399;51.444;-2.018;2023-06-22T14:03:05;0.55;;;0.22;;
43435;SDS011;36399;51.444;-2.018;2023-06-22T14:05:31;0.50;;;0.28;;
43435;SDS011;36399;51.444;-2.018;2023-06-22T14:07:57;1.85;;;0.93;;
43435;SDS011;36399;51.444;-2.018;2023-06-22T14:10:23;0.35;;;0.28;;
43435;SDS011;36399;51.444;-2.018;2023-06-22T14:12:49;0.13;;;0.13;;
43435;SDS011;36399;51.444;-2.018;2023-06-22T14:15:15;0.73;;;0.73;;
43435;SDS011;36399;51.444;-2.018;2023-06-22T14:17:41;0.77;;;0.63;;
43435;SDS011;36399;51.444;-2.018;2023-06-22T14:20:08;0.90;;;0.80;;
43435;SDS011;36399;51.444;-2.018;2023-06-22T14:22:34;0.90;;;0.20;;
43435;SDS011;36399;51.444;-2.018;2023-06-22T14:25:00;0.88;;;0.82;;
43435;SDS011;36399;51.444;-2.018;2023-06-22T14:27:27;5.47;;;0.75;;
43435;SDS011;36399;51.444;-2.018;2023-06-22T14:29:53;1.13;;;0.52;;
43435;SDS011;36399;51.444;-2.018;2023-06-22T14:32:19;0.22;;;0.03;;
43435;SDS011;36399;51.444;-2.018;2023-06-22T14:34:45;0.10;;;0.10;;
43435;SDS011;36399;51.444;-2.018;2023-06-22T14:37:11;0.50;;;0.30;;
43435;SDS011;36399;51.444;-2.018;2023-06-22T14:39:38;0.82;;;0.73;;
43435;SDS011;36399;51.444;-2.018;2023-06-22T14:42:05;1.25;;;0.60;;